Terminal Aerodrome Forecast
Issued by NWS Jackson, MS

Home | Current Version | Previous Version | Text Only | Print | Product List | Glossary On
Versions: 1 2 3 4 5 6 7 8 9 10 11 12 13 14 15 16
000
FTUS44 KJAN 020100 AAA
TAFHBG
TAF AMD
KHBG 020150Z 0202/0224 07005KT 1SM +TSRA BR OVC007CB
     FM020300 15003KT 3SM -RA BR VCTS OVC007CB
     FM020700 13002KT 4SM BR OVC003
     FM020800 13002KT 2SM BR OVC003
     FM021100 00000KT 1/2SM FG OVC001
     FM021400 14002KT 2SM BR OVC003
     FM021800 10002KT 4SM BR OVC007=

USA.gov is the U.S. government's official web portal to all federal, state and local government web resources and services.